createdAt,value
2018-10-15T00:00:39.530Z,99.99
2018-10-15T00:01:39.525Z,99.99
2018-10-15T00:02:39.527Z,99.99
2018-10-15T00:03:39.555Z,99.99
2018-10-15T00:04:39.519Z,99.99
2018-10-15T00:05:39.518Z,99.99
2018-10-15T00:06:39.528Z,99.99
2018-10-15T00:07:39.520Z,99.99
2018-10-15T00:08:39.548Z,99.99
2018-10-15T00:09:39.516Z,99.99
2018-10-15T00:10:39.509Z,99.99
2018-10-15T00:11:39.561Z,99.99
2018-10-15T00:12:39.513Z,99.99
2018-10-15T00:13:39.544Z,99.99
2018-10-15T00:14:39.509Z,99.99
2018-10-15T00:15:39.506Z,99.99
2018-10-15T00:16:39.506Z,99.99
2018-10-15T00:17:39.498Z,99.99
2018-10-15T00:18:39.528Z,99.99
2018-10-15T00:19:39.498Z,99.99
2018-10-15T00:20:39.490Z,99.99
2018-10-15T00:21:39.494Z,99.99
2018-10-15T00:22:39.494Z,99.99
2018-10-15T00:23:39.520Z,99.99
2018-10-15T00:24:39.491Z,99.99
2018-10-15T00:25:39.483Z,99.99
2018-10-15T00:26:39.488Z,99.99
2018-10-15T00:27:39.487Z,99.99
2018-10-15T00:28:39.508Z,99.99
2018-10-15T00:29:39.479Z,99.99
2018-10-15T00:30:39.480Z,99.99
2018-10-15T00:31:39.483Z,99.99
2018-10-15T00:32:39.476Z,99.99
2018-10-15T00:33:39.501Z,99.99
2018-10-15T00:34:39.464Z,99.99
2018-10-15T00:35:39.469Z,99.99
2018-10-15T00:36:39.469Z,99.99
2018-10-15T00:37:39.464Z,99.99
2018-10-15T00:38:39.490Z,99.99
2018-10-15T00:39:39.478Z,99.99
2018-10-15T00:40:39.467Z,99.99
2018-10-15T00:41:39.451Z,99.99
2018-10-15T00:42:39.458Z,99.99
2018-10-15T00:43:39.453Z,99.99
2018-10-15T00:44:39.481Z,99.99
2018-10-15T00:45:39.452Z,99.99
2018-10-15T00:46:39.450Z,99.99
2018-10-15T00:47:39.446Z,99.99
2018-10-15T00:48:39.443Z,99.99
2018-10-15T00:49:39.469Z,99.99
2018-10-15T00:50:39.430Z,99.99
2018-10-15T00:51:39.518Z,99.99
2018-10-15T00:52:39.438Z,99.99
2018-10-15T00:53:39.433Z,99.99
2018-10-15T00:54:39.459Z,99.99
2018-10-15T00:55:39.424Z,99.99
2018-10-15T00:56:39.429Z,99.99
2018-10-15T00:57:39.425Z,99.99
2018-10-15T00:58:39.448Z,99.99
2018-10-15T00:59:39.420Z,99.99
2018-10-15T01:00:39.421Z,99.99
2018-10-15T01:01:39.417Z,99.99
2018-10-15T01:02:39.417Z,99.99
2018-10-15T01:03:39.444Z,99.99
2018-10-15T01:04:39.438Z,99.99
2018-10-15T01:05:39.402Z,99.99
2018-10-15T01:06:39.409Z,99.99
2018-10-15T01:07:39.406Z,99.99
2018-10-15T01:08:39.402Z,99.99
2018-10-15T01:09:39.430Z,99.99
2018-10-15T01:10:39.398Z,99.99
2018-10-15T01:11:39.398Z,99.99
2018-10-15T01:12:39.395Z,99.99
2018-10-15T01:13:39.394Z,99.99
2018-10-15T01:14:39.418Z,99.99
2018-10-15T01:15:39.388Z,99.99
2018-10-15T01:16:39.383Z,99.99
2018-10-15T01:17:39.386Z,99.99
2018-10-15T01:18:39.414Z,99.99
2018-10-15T01:19:39.376Z,99.99
2018-10-15T01:20:39.384Z,99.99
2018-10-15T01:21:39.380Z,99.99
2018-10-15T01:22:39.371Z,99.99
2018-10-15T01:23:39.400Z,99.99
2018-10-15T01:24:39.375Z,99.99
2018-10-15T01:25:39.370Z,99.99
2018-10-15T01:26:39.362Z,99.99
2018-10-15T01:27:39.364Z,99.99
2018-10-15T01:28:39.389Z,99.99
2018-10-15T01:29:39.361Z,99.99
2018-10-15T01:30:39.358Z,99.99
2018-10-15T01:31:39.469Z,99.99
2018-10-15T01:32:39.353Z,99.99
2018-10-15T01:33:39.380Z,99.99
2018-10-15T01:34:39.349Z,99.99
2018-10-15T01:35:39.338Z,99.99
2018-10-15T01:36:39.346Z,99.99
2018-10-15T01:37:39.334Z,99.99
2018-10-15T01:38:39.371Z,99.99
2018-10-15T01:39:39.341Z,99.99
2018-10-15T01:40:39.336Z,99.99
2018-10-15T01:41:39.341Z,99.99
2018-10-15T01:42:39.360Z,99.99
2018-10-15T01:43:39.327Z,99.99
2018-10-15T01:44:39.336Z,99.99
2018-10-15T01:45:39.329Z,99.99
2018-10-15T01:46:39.324Z,99.99
2018-10-15T01:47:39.344Z,99.99
2018-10-15T01:48:39.323Z,99.99
2018-10-15T01:49:39.321Z,99.99
2018-10-15T01:50:39.316Z,99.99
2018-10-15T01:51:39.315Z,99.99
2018-10-15T01:52:39.341Z,99.99
2018-10-15T01:53:39.312Z,99.99
2018-10-15T01:54:39.310Z,99.99
2018-10-15T01:55:39.333Z,99.99
2018-10-15T01:56:39.305Z,99.99
2018-10-15T01:57:39.299Z,99.99
2018-10-15T01:58:39.329Z,99.99
2018-10-15T01:59:39.292Z,99.99
2018-10-15T02:00:39.298Z,99.99
2018-10-15T02:01:39.285Z,99.99
2018-10-15T02:02:39.318Z,99.99
2018-10-15T02:03:39.297Z,99.99
2018-10-15T02:04:39.291Z,99.99
2018-10-15T02:05:39.284Z,99.99
2018-10-15T02:06:39.289Z,99.99
2018-10-15T02:07:39.306Z,99.99
2018-10-15T02:08:39.280Z,99.99
2018-10-15T02:09:39.285Z,99.99
2018-10-15T02:10:39.274Z,99.99
2018-10-15T02:11:39.323Z,99.99
2018-10-15T02:12:39.300Z,99.99
2018-10-15T02:13:39.267Z,99.99
2018-10-15T02:14:39.262Z,99.99
2018-10-15T02:15:39.264Z,99.99
2018-10-15T02:16:39.283Z,99.99
2018-10-15T02:17:39.293Z,99.99
2018-10-15T02:18:39.263Z,99.99
2018-10-15T02:19:39.261Z,99.99
2018-10-15T02:20:39.250Z,99.99
2018-10-15T02:21:39.257Z,99.99
2018-10-15T02:22:39.281Z,99.99
2018-10-15T02:23:39.250Z,99.99
2018-10-15T02:24:39.251Z,99.99
2018-10-15T02:25:39.241Z,99.99
2018-10-15T02:26:39.246Z,99.99
2018-10-15T02:27:39.268Z,99.99
2018-10-15T02:28:39.243Z,99.99
2018-10-15T02:29:39.236Z,99.99
2018-10-15T02:30:39.234Z,99.99
2018-10-15T02:31:39.234Z,99.99
2018-10-15T02:32:39.262Z,99.99
2018-10-15T02:33:39.234Z,99.99
2018-10-15T02:34:39.223Z,99.99
2018-10-15T02:35:39.222Z,99.99
2018-10-15T02:36:39.229Z,99.99
2018-10-15T02:37:39.247Z,99.99
2018-10-15T02:38:39.219Z,99.99
2018-10-15T02:39:39.215Z,99.99
2018-10-15T02:40:39.211Z,99.99
2018-10-15T02:41:39.212Z,99.99
2018-10-15T02:42:39.238Z,99.99
2018-10-15T02:43:39.201Z,99.99
2018-10-15T02:44:39.210Z,99.99
2018-10-15T02:45:39.212Z,99.99
2018-10-15T02:46:39.208Z,99.99
2018-10-15T02:47:39.237Z,99.99
2018-10-15T02:48:39.204Z,99.99
2018-10-15T02:49:39.204Z,99.99
2018-10-15T02:50:39.200Z,99.99
2018-10-15T02:51:40.201Z,99.99
2018-10-15T02:52:39.224Z,99.99
2018-10-15T02:53:39.200Z,99.99
2018-10-15T02:54:39.195Z,99.99
2018-10-15T02:55:39.190Z,99.99
2018-10-15T02:56:39.182Z,99.99
2018-10-15T02:57:39.214Z,99.99
2018-10-15T02:58:39.182Z,99.99
2018-10-15T02:59:39.178Z,99.99
2018-10-15T03:00:39.179Z,99.99
2018-10-15T03:01:39.180Z,99.99
2018-10-15T03:02:39.202Z,99.99
2018-10-15T03:03:39.181Z,99.99
2018-10-15T03:04:39.171Z,99.99
2018-10-15T03:05:39.175Z,99.99
2018-10-15T03:06:39.172Z,99.99
2018-10-15T03:07:39.194Z,99.99
2018-10-15T03:08:39.159Z,99.99
2018-10-15T03:09:39.164Z,99.99
2018-10-15T03:10:39.155Z,99.99
2018-10-15T03:11:39.155Z,99.99
2018-10-15T03:12:39.186Z,99.99
2018-10-15T03:13:39.147Z,99.99
2018-10-15T03:14:39.142Z,99.99
2018-10-15T03:15:39.139Z,99.99
2018-10-15T03:16:39.168Z,99.99
2018-10-15T03:17:39.138Z,99.99
2018-10-15T03:18:39.169Z,99.99
2018-10-15T03:19:39.133Z,99.99
2018-10-15T03:20:39.133Z,99.99
2018-10-15T03:21:39.129Z,99.99
2018-10-15T03:22:39.125Z,99.99
2018-10-15T03:23:39.150Z,99.99
2018-10-15T03:24:39.123Z,99.99
2018-10-15T03:25:39.122Z,99.99
2018-10-15T03:26:39.118Z,99.99
2018-10-15T03:27:39.141Z,99.99
2018-10-15T03:28:39.111Z,99.99
2018-10-15T03:29:39.113Z,99.99
2018-10-15T03:30:39.107Z,99.99
2018-10-15T03:31:39.103Z,99.99
2018-10-15T03:32:39.136Z,99.99
2018-10-15T03:33:39.103Z,99.99
2018-10-15T03:34:39.095Z,99.99
2018-10-15T03:35:39.095Z,99.99
2018-10-15T03:36:39.092Z,99.99
2018-10-15T03:37:39.117Z,99.99
2018-10-15T03:38:39.087Z,99.99
2018-10-15T03:39:39.083Z,99.99
2018-10-15T03:40:39.083Z,99.99
2018-10-15T03:41:39.085Z,99.99
2018-10-15T03:42:39.104Z,99.99
2018-10-15T03:43:39.075Z,99.99
2018-10-15T03:44:39.075Z,99.99
2018-10-15T03:45:39.073Z,99.99
2018-10-15T03:46:39.072Z,99.99
2018-10-15T03:47:39.097Z,99.99
2018-10-15T03:48:39.061Z,99.99
2018-10-15T03:49:39.064Z,99.99
2018-10-15T03:50:39.067Z,99.99
2018-10-15T03:51:39.060Z,99.99
2018-10-15T03:52:39.085Z,99.99
2018-10-15T03:53:39.080Z,99.99
2018-10-15T03:54:39.053Z,99.99
2018-10-15T03:55:39.052Z,99.99
2018-10-15T03:56:39.045Z,99.99
2018-10-15T03:57:39.116Z,99.99
2018-10-15T03:58:39.044Z,99.99
2018-10-15T03:59:39.032Z,99.99
2018-10-15T04:00:39.039Z,99.99
2018-10-15T04:01:39.034Z,99.99
2018-10-15T04:02:39.063Z,99.99
2018-10-15T04:03:39.031Z,99.99
2018-10-15T04:04:39.029Z,99.99
2018-10-15T04:05:39.027Z,99.99
2018-10-15T04:06:39.027Z,99.99
2018-10-15T04:07:39.054Z,99.99
2018-10-15T04:08:39.031Z,99.99
2018-10-15T04:09:39.019Z,99.99
2018-10-15T04:10:39.019Z,99.99
2018-10-15T04:11:39.008Z,99.99
2018-10-15T04:12:39.040Z,99.99
2018-10-15T04:13:39.036Z,99.99
2018-10-15T04:14:39.040Z,99.99
2018-10-15T04:15:39.006Z,99.99
2018-10-15T04:16:39.000Z,99.99
2018-10-15T04:17:39.028Z,99.99
2018-10-15T04:18:38.998Z,99.99
2018-10-15T04:19:38.996Z,99.99
2018-10-15T04:20:38.993Z,99.99
2018-10-15T04:21:39.005Z,99.99
2018-10-15T04:22:39.027Z,99.99
2018-10-15T04:23:38.983Z,99.99
2018-10-15T04:24:38.986Z,99.99
2018-10-15T04:25:38.992Z,99.99
2018-10-15T04:26:38.979Z,99.99
2018-10-15T04:27:39.007Z,99.99
2018-10-15T04:28:38.969Z,99.99
2018-10-15T04:29:38.969Z,99.99
2018-10-15T04:30:38.970Z,99.99
2018-10-15T04:31:38.967Z,99.99
2018-10-15T04:32:38.991Z,99.99
2018-10-15T04:33:38.962Z,99.99
2018-10-15T04:34:38.958Z,99.99
2018-10-15T04:35:38.958Z,99.99
2018-10-15T04:36:38.955Z,99.99
2018-10-15T04:37:39.031Z,99.99
2018-10-15T04:38:38.952Z,99.99
2018-10-15T04:39:38.948Z,99.99
2018-10-15T04:40:38.949Z,99.99
2018-10-15T04:41:38.946Z,99.99
2018-10-15T04:42:38.989Z,99.99
2018-10-15T04:43:38.937Z,99.99
2018-10-15T04:44:38.938Z,99.99
2018-10-15T04:45:38.936Z,99.99
2018-10-15T04:46:38.927Z,99.99
2018-10-15T04:47:38.956Z,99.99
2018-10-15T04:48:38.930Z,99.99
2018-10-15T04:49:39.098Z,99.99
2018-10-15T04:50:38.926Z,99.99
2018-10-15T04:51:38.920Z,99.99
2018-10-15T04:52:38.948Z,99.99
2018-10-15T04:53:38.918Z,99.99
2018-10-15T04:54:38.914Z,99.99
2018-10-15T04:55:38.910Z,99.99
2018-10-15T04:56:38.911Z,99.99
2018-10-15T04:57:38.933Z,99.99
2018-10-15T04:58:38.900Z,99.99
2018-10-15T04:59:38.901Z,99.99
2018-10-15T05:00:38.900Z,99.99
2018-10-15T05:01:38.908Z,99.99
2018-10-15T05:02:38.922Z,99.99
2018-10-15T05:03:38.890Z,99.99
2018-10-15T05:04:38.889Z,99.99
2018-10-15T05:05:38.888Z,99.99
2018-10-15T05:06:38.882Z,99.99
2018-10-15T05:07:38.908Z,99.99
2018-10-15T05:08:38.878Z,99.99
2018-10-15T05:09:38.938Z,99.99
2018-10-15T05:10:38.879Z,99.99
2018-10-15T05:11:38.875Z,99.99
2018-10-15T05:12:38.899Z,99.99
2018-10-15T05:13:38.872Z,99.99
2018-10-15T05:14:38.863Z,99.99
2018-10-15T05:15:38.864Z,99.99
2018-10-15T05:16:38.859Z,99.99
2018-10-15T05:17:38.885Z,99.99
2018-10-15T05:18:38.852Z,99.99
2018-10-15T05:19:38.851Z,99.99
2018-10-15T05:20:38.891Z,99.99
2018-10-15T05:21:38.848Z,99.99
2018-10-15T05:22:38.873Z,99.99
2018-10-15T05:23:38.844Z,99.99
2018-10-15T05:24:38.842Z,99.99
2018-10-15T05:25:38.837Z,99.99
2018-10-15T05:26:38.841Z,99.99
2018-10-15T05:27:38.923Z,99.99
2018-10-15T05:28:38.830Z,99.99
2018-10-15T05:29:38.830Z,99.99
2018-10-15T05:30:38.976Z,99.99
2018-10-15T05:31:38.820Z,99.99
2018-10-15T05:32:38.851Z,99.99
2018-10-15T05:33:38.824Z,99.99
2018-10-15T05:34:38.822Z,99.99
2018-10-15T05:35:38.808Z,99.99
2018-10-15T05:36:38.851Z,99.99
2018-10-15T05:37:38.835Z,99.99
2018-10-15T05:38:38.802Z,99.99
2018-10-15T05:39:38.803Z,99.99
2018-10-15T05:40:38.795Z,99.99
2018-10-15T05:41:38.799Z,99.99
2018-10-15T05:42:38.832Z,99.99
2018-10-15T05:43:38.796Z,99.99
2018-10-15T05:44:38.791Z,99.99
2018-10-15T05:45:38.787Z,99.99
2018-10-15T05:46:38.831Z,99.99
2018-10-15T05:47:38.812Z,99.99
2018-10-15T05:48:38.817Z,99.99
2018-10-15T05:49:38.775Z,99.99
2018-10-15T05:50:38.782Z,99.99
2018-10-15T05:51:38.777Z,99.99
2018-10-15T05:52:38.777Z,98.42
2018-10-15T05:53:38.799Z,99.85
2018-10-15T05:54:38.769Z,98.37
2018-10-15T05:55:38.762Z,97.85
2018-10-15T05:56:38.768Z,96.61
2018-10-15T05:57:38.789Z,95.94
2018-10-15T05:58:38.757Z,95.94
2018-10-15T05:59:38.767Z,95.17
2018-10-15T06:00:38.757Z,93.98
2018-10-15T06:01:38.759Z,94.07
2018-10-15T06:02:38.780Z,93.12
2018-10-15T06:03:38.750Z,92.16
2018-10-15T06:04:38.747Z,91.59
2018-10-15T06:05:38.750Z,91.16
2018-10-15T06:06:38.739Z,90.88
2018-10-15T06:07:38.770Z,90.01
2018-10-15T06:08:38.743Z,89.92
2018-10-15T06:09:38.779Z,89.82
2018-10-15T06:10:55.463Z,89.63
2018-10-15T06:11:39.506Z,89.15
2018-10-15T06:12:38.808Z,88.96
2018-10-15T06:13:38.746Z,89.73
2018-10-15T06:14:38.734Z,89.73
2018-10-15T06:15:38.730Z,88.87
2018-10-15T06:16:38.727Z,89.44
2018-10-15T06:17:38.752Z,88.58
2018-10-15T06:18:38.726Z,88.58
2018-10-15T06:19:38.730Z,88.10
2018-10-15T06:20:38.721Z,88.29
2018-10-15T06:21:38.719Z,88.39
2018-10-15T06:22:38.788Z,88.10
2018-10-15T06:23:40.941Z,87.72
2018-10-15T06:24:38.719Z,87.15
2018-10-15T06:25:39.601Z,86.80
2018-10-15T06:26:41.986Z,85.66
2018-10-15T06:27:39.497Z,85.18
2018-10-15T06:28:40.964Z,85.09
2018-10-15T06:29:38.712Z,84.89
2018-10-15T06:30:38.713Z,84.36
2018-10-15T06:31:38.739Z,83.79
2018-10-15T06:32:38.709Z,83.50
2018-10-15T06:33:38.728Z,83.69
2018-10-15T06:34:38.716Z,82.83
2018-10-15T06:35:38.714Z,82.54
2018-10-15T06:36:38.747Z,82.74
2018-10-15T06:37:38.709Z,82.54
2018-10-15T06:38:38.709Z,82.45
2018-10-15T06:39:38.711Z,82.54
2018-10-15T06:40:38.709Z,82.26
2018-10-15T06:41:38.737Z,82.35
2018-10-15T06:42:38.737Z,81.97
2018-10-15T06:43:38.758Z,81.88
2018-10-15T06:44:38.709Z,81.68
2018-10-15T06:45:38.711Z,81.78
2018-10-15T06:46:38.709Z,81.97
2018-10-15T06:47:38.745Z,81.88
2018-10-15T06:48:38.715Z,80.96
2018-10-15T06:49:38.715Z,81.05
2018-10-15T06:50:38.718Z,80.48
2018-10-15T06:51:38.742Z,80.96
2018-10-15T06:52:38.715Z,80.77
2018-10-15T06:53:38.777Z,80.38
2018-10-15T06:54:38.724Z,80.19
2018-10-15T06:55:38.719Z,79.43
2018-10-15T06:56:38.724Z,79.62
2018-10-15T06:57:38.743Z,79.33
2018-10-15T06:58:38.723Z,79.52
2018-10-15T06:59:38.720Z,79.24
2018-10-15T07:00:38.728Z,78.61
2018-10-15T07:01:38.755Z,78.38
2018-10-15T07:02:38.729Z,78.19
2018-10-15T07:03:38.731Z,78.61
2018-10-15T07:04:38.731Z,78.51
2018-10-15T07:05:38.740Z,78.28
2018-10-15T07:06:38.772Z,78.51
2018-10-15T07:07:38.779Z,78.19
2018-10-15T07:08:39.280Z,78.03
2018-10-15T07:09:38.748Z,77.94
2018-10-15T07:10:42.986Z,78.09
2018-10-15T07:11:38.745Z,77.65
2018-10-15T07:12:38.779Z,77.94
2018-10-15T07:13:38.781Z,77.78
2018-10-15T07:14:38.804Z,76.82
2018-10-15T07:15:38.750Z,76.15
2018-10-15T07:16:38.755Z,75.87
2018-10-15T07:17:38.793Z,75.48
2018-10-15T07:18:38.762Z,76.06
2018-10-15T07:19:38.770Z,76.15
2018-10-15T07:20:38.780Z,75.48
2018-10-15T07:21:38.771Z,75.77
2018-10-15T07:22:38.798Z,75.58
2018-10-15T07:23:38.772Z,74.72
2018-10-15T07:24:38.779Z,75.58
2018-10-15T07:25:38.783Z,74.82
2018-10-15T07:26:38.783Z,74.82
2018-10-15T07:27:38.815Z,75.58
2018-10-15T07:28:38.793Z,75.48
2018-10-15T07:29:38.795Z,74.57
2018-10-15T07:30:38.797Z,74.27
2018-10-15T07:31:38.800Z,74.47
2018-10-15T07:32:38.834Z,74.85
2018-10-15T07:33:38.867Z,74.27
2018-10-15T07:34:38.817Z,73.51
2018-10-15T07:35:38.816Z,74.72
2018-10-15T07:36:38.819Z,74.72
2018-10-15T07:37:38.852Z,74.85
2018-10-15T07:38:38.821Z,74.47
2018-10-15T07:39:38.886Z,74.08
2018-10-15T07:40:38.832Z,74.02
2018-10-15T07:41:38.839Z,73.61
2018-10-15T07:42:38.869Z,73.99
2018-10-15T07:43:38.849Z,73.99
2018-10-15T07:44:38.859Z,73.99
2018-10-15T07:45:38.862Z,73.80
2018-10-15T07:46:38.923Z,73.13
2018-10-15T07:47:38.897Z,73.35
2018-10-15T07:48:38.869Z,72.68
2018-10-15T07:49:38.874Z,72.24
2018-10-15T07:50:38.877Z,72.05
2018-10-15T07:51:38.888Z,70.58
2018-10-15T07:52:38.911Z,69.34
2018-10-15T07:53:38.899Z,68.76
2018-10-15T07:54:38.898Z,69.11
2018-10-15T07:55:38.904Z,69.05
2018-10-15T07:56:38.934Z,68.91
2018-10-15T07:57:38.921Z,69.20
2018-10-15T07:58:38.921Z,69.59
2018-10-15T07:59:38.954Z,70.42
2018-10-15T08:00:38.936Z,70.90
2018-10-15T08:01:38.941Z,70.01
2018-10-15T08:02:38.976Z,68.31
2018-10-15T08:03:38.948Z,67.77
2018-10-15T08:04:38.964Z,66.14
2018-10-15T08:05:39.007Z,66.07
2018-10-15T08:06:38.972Z,64.98
2018-10-15T08:07:39.006Z,66.14
2018-10-15T08:08:39.142Z,66.46
2018-10-15T08:09:38.985Z,67.99
2018-10-15T08:10:38.991Z,68.66
2018-10-15T08:11:39.001Z,67.70
2018-10-15T08:12:39.040Z,67.99
2018-10-15T08:13:39.020Z,68.44
2018-10-15T08:14:39.098Z,68.05
2018-10-15T08:15:39.316Z,68.82
2018-10-15T08:16:39.043Z,69.20
2018-10-15T08:17:39.046Z,68.28
2018-10-15T08:18:39.081Z,67.25
2018-10-15T08:19:39.058Z,66.87
2018-10-15T08:20:39.138Z,66.42
2018-10-15T08:21:39.075Z,66.55
2018-10-15T08:22:40.062Z,67.32
2018-10-15T08:23:39.114Z,67.80
2018-10-15T08:24:39.095Z,67.07
2018-10-15T08:25:39.107Z,67.61
2018-10-15T08:26:39.113Z,66.77
2018-10-15T08:27:39.122Z,66.68
2018-10-15T08:28:39.204Z,65.84
2018-10-15T08:29:40.821Z,65.23
2018-10-15T08:30:39.145Z,66.30
2018-10-15T08:31:39.155Z,66.87
2018-10-15T08:32:39.186Z,66.49
2018-10-15T08:33:39.175Z,65.94
2018-10-15T08:34:39.202Z,65.14
2018-10-15T08:35:39.285Z,64.18
2018-10-15T08:36:41.065Z,64.12
2018-10-15T08:37:39.236Z,62.22
2018-10-15T08:38:39.213Z,61.55
2018-10-15T08:39:39.223Z,61.48
2018-10-15T08:40:39.229Z,60.26
2018-10-15T08:41:39.260Z,59.61
2018-10-15T08:42:40.173Z,57.78
2018-10-15T08:43:39.263Z,57.68
2018-10-15T08:44:39.274Z,58.03
2018-10-15T08:45:39.283Z,55.74
2018-10-15T08:46:39.288Z,55.55
2018-10-15T08:47:39.320Z,55.19
2018-10-15T08:48:39.410Z,54.73
2018-10-15T08:49:42.185Z,53.74
2018-10-15T08:50:39.391Z,54.32
2018-10-15T08:51:39.347Z,53.93
2018-10-15T08:52:39.446Z,54.13
2018-10-15T08:53:39.364Z,53.71
2018-10-15T08:54:39.379Z,55.98
2018-10-15T08:55:41.551Z,57.52
2018-10-15T08:56:39.396Z,58.69
2018-10-15T08:57:39.444Z,59.14
2018-10-15T08:58:39.417Z,58.78
2018-10-15T08:59:39.427Z,59.20
2018-10-15T09:00:39.443Z,57.98
2018-10-15T09:01:39.469Z,59.07
2018-10-15T09:02:41.572Z,59.04
2018-10-15T09:03:39.480Z,59.23
2018-10-15T09:04:39.492Z,58.72
2018-10-15T09:05:39.504Z,57.39
2018-10-15T09:06:40.158Z,56.84
2018-10-15T09:07:39.839Z,56.27
2018-10-15T09:08:40.642Z,57.65
2018-10-15T09:09:39.587Z,57.92
2018-10-15T09:10:39.565Z,58.52
2018-10-15T09:11:39.578Z,56.94
2018-10-15T09:12:39.636Z,56.07
2018-10-15T09:13:39.597Z,56.65
2018-10-15T09:14:39.742Z,55.90
2018-10-15T09:15:39.623Z,54.90
2018-10-15T09:16:39.638Z,53.47
2018-10-15T09:17:39.682Z,53.19
2018-10-15T09:18:40.593Z,52.51
2018-10-15T09:19:42.546Z,52.36
2018-10-15T09:20:39.707Z,53.30
2018-10-15T09:21:39.734Z,55.82
2018-10-15T09:22:39.748Z,58.08
2018-10-15T09:23:39.917Z,58.97
2018-10-15T09:24:40.750Z,59.58
2018-10-15T09:25:39.776Z,58.55
2018-10-15T09:26:39.793Z,57.81
2018-10-15T09:27:42.828Z,56.29
2018-10-15T09:28:40.647Z,55.16
2018-10-15T09:29:39.810Z,54.19
2018-10-15T09:30:39.833Z,54.27
2018-10-15T09:31:40.143Z,54.58
2018-10-15T09:32:43.187Z,54.49
2018-10-15T09:33:39.936Z,53.59
2018-10-15T09:34:40.197Z,55.46
2018-10-15T09:35:41.087Z,56.91
2018-10-15T09:36:39.913Z,57.04
2018-10-15T09:37:39.956Z,56.04
2018-10-15T09:38:40.041Z,57.10
2018-10-15T09:39:41.602Z,56.91
2018-10-15T09:40:39.972Z,56.84
2018-10-15T09:41:40.595Z,56.13
2018-10-15T09:42:40.026Z,54.39
2018-10-15T09:43:40.016Z,54.29
2018-10-15T09:44:41.183Z,54.61
2018-10-15T09:45:40.062Z,54.58
2018-10-15T09:46:40.077Z,54.62
2018-10-15T09:47:40.098Z,55.88
2018-10-15T09:48:41.554Z,56.11
2018-10-15T09:49:40.101Z,57.75
2018-10-15T09:50:40.175Z,58.88
2018-10-15T09:51:41.600Z,58.81
2018-10-15T09:52:40.153Z,57.59
2018-10-15T09:53:40.186Z,56.77
2018-10-15T09:54:40.169Z,56.65
2018-10-15T09:55:40.186Z,56.26
2018-10-15T09:56:40.258Z,56.29
2018-10-15T09:57:41.103Z,55.57
2018-10-15T09:58:40.252Z,54.29
2018-10-15T09:59:40.245Z,55.42
2018-10-15T10:00:40.261Z,55.45
2018-10-15T10:01:40.272Z,55.55
2018-10-15T10:02:40.349Z,55.90
2018-10-15T10:03:40.335Z,55.85
2018-10-15T10:04:40.320Z,56.72
2018-10-15T10:05:40.334Z,57.37
2018-10-15T10:06:40.349Z,58.26
2018-10-15T10:07:40.396Z,57.23
2018-10-15T10:08:40.440Z,55.71
2018-10-15T10:09:40.393Z,55.29
2018-10-15T10:10:40.446Z,55.13
2018-10-15T10:11:40.425Z,55.13
2018-10-15T10:12:40.449Z,55.07
2018-10-15T10:13:40.480Z,54.39
2018-10-15T10:14:40.478Z,54.58
2018-10-15T10:15:40.480Z,54.13
2018-10-15T10:16:40.539Z,53.57
2018-10-15T10:17:40.640Z,53.45
2018-10-15T10:18:40.588Z,54.36
2018-10-15T10:19:40.539Z,56.00
2018-10-15T10:20:40.566Z,55.83
2018-10-15T10:21:40.586Z,54.39
2018-10-15T10:22:40.602Z,54.61
2018-10-15T10:23:40.635Z,53.41
2018-10-15T10:24:40.626Z,52.36
2018-10-15T10:25:40.633Z,51.66
2018-10-15T10:26:40.654Z,52.31
2018-10-15T10:27:40.668Z,52.97
2018-10-15T10:28:40.836Z,53.81
2018-10-15T10:29:40.706Z,54.49
2018-10-15T10:30:40.713Z,53.28
2018-10-15T10:31:40.729Z,53.11
2018-10-15T10:32:41.643Z,52.51
2018-10-15T10:33:43.758Z,52.34
2018-10-15T10:34:40.930Z,52.24
2018-10-15T10:35:40.796Z,52.36
2018-10-15T10:36:40.811Z,51.56
2018-10-15T10:37:40.825Z,52.53
2018-10-15T10:38:40.901Z,51.59
2018-10-15T10:39:40.943Z,51.06
2018-10-15T10:40:40.874Z,50.50
2018-10-15T10:41:40.921Z,50.29
2018-10-15T10:42:40.906Z,50.92
2018-10-15T10:43:40.953Z,52.44
2018-10-15T10:44:40.957Z,52.19
2018-10-15T10:45:41.100Z,53.61
2018-10-15T10:46:40.971Z,53.86
2018-10-15T10:47:40.987Z,53.11
2018-10-15T10:48:41.036Z,52.02
2018-10-15T10:49:41.020Z,52.41
2018-10-15T10:50:41.041Z,52.80
2018-10-15T10:51:41.056Z,52.44
2018-10-15T10:52:41.071Z,52.02
2018-10-15T10:53:41.122Z,52.94
2018-10-15T10:54:41.105Z,54.03
2018-10-15T10:55:41.124Z,54.58
2018-10-15T10:56:41.140Z,53.83
2018-10-15T10:57:41.177Z,53.38
2018-10-15T10:58:41.287Z,53.47
2018-10-15T10:59:41.199Z,53.21
2018-10-15T11:00:41.204Z,52.20
2018-10-15T11:01:41.224Z,52.20
2018-10-15T11:02:41.285Z,51.01
2018-10-15T11:03:41.281Z,52.24
2018-10-15T11:04:41.271Z,51.98
2018-10-15T11:05:41.308Z,51.98
2018-10-15T11:06:41.303Z,51.90
2018-10-15T11:07:41.318Z,50.65
2018-10-15T11:08:41.456Z,50.87
2018-10-15T11:09:41.355Z,50.50
2018-10-15T11:10:41.368Z,49.92
2018-10-15T11:11:41.389Z,49.66
2018-10-15T11:12:41.447Z,48.73
2018-10-15T11:13:41.457Z,47.57
2018-10-15T11:14:41.437Z,47.23
2018-10-15T11:15:41.456Z,48.32
2018-10-15T11:16:41.477Z,47.96
2018-10-15T11:17:41.512Z,47.13
2018-10-15T11:18:41.600Z,46.94
2018-10-15T11:19:41.524Z,46.47
2018-10-15T11:20:41.545Z,45.91
2018-10-15T11:21:41.561Z,45.84
2018-10-15T11:22:41.606Z,45.11
2018-10-15T11:23:41.601Z,45.28
2018-10-15T11:24:41.613Z,46.81
2018-10-15T11:25:41.641Z,46.98
2018-10-15T11:26:41.730Z,47.86
2018-10-15T11:27:41.670Z,49.00
2018-10-15T11:28:41.720Z,48.35
2018-10-15T11:29:41.747Z,47.13
2018-10-15T11:30:41.726Z,47.33
2018-10-15T11:31:41.747Z,48.03
2018-10-15T11:32:41.792Z,48.39
2018-10-15T11:33:41.789Z,48.42
2018-10-15T11:34:41.868Z,48.42
2018-10-15T11:35:41.821Z,48.13
2018-10-15T11:36:41.840Z,48.27
2018-10-15T11:37:41.884Z,48.88
2018-10-15T11:38:41.878Z,48.35
2018-10-15T11:39:41.901Z,47.34
2018-10-15T11:40:41.916Z,45.37
2018-10-15T11:41:41.933Z,43.66
2018-10-15T11:42:41.981Z,43.19
2018-10-15T11:43:42.013Z,42.02
2018-10-15T11:44:41.995Z,42.83
2018-10-15T11:45:42.009Z,41.58
2018-10-15T11:46:42.093Z,41.38
2018-10-15T11:47:42.082Z,41.13
2018-10-15T11:48:42.074Z,42.76
2018-10-15T11:49:42.094Z,43.29
2018-10-15T11:50:42.110Z,45.57
2018-10-15T11:51:42.137Z,47.03
2018-10-15T11:52:42.180Z,46.84
2018-10-15T11:53:42.181Z,45.79
2018-10-15T11:54:42.193Z,45.57
2018-10-15T11:55:42.212Z,46.42
2018-10-15T11:56:42.230Z,47.45
2018-10-15T11:57:42.280Z,48.66
2018-10-15T11:58:42.341Z,48.76
2018-10-15T11:59:42.289Z,48.95
2018-10-15T12:00:42.310Z,49.00
2018-10-15T12:01:42.330Z,51.04
2018-10-15T12:02:42.464Z,48.54
2018-10-15T12:03:42.371Z,47.42
2018-10-15T12:04:42.390Z,48.57
2018-10-15T12:05:42.408Z,48.85
2018-10-15T12:06:42.429Z,49.34
2018-10-15T12:07:42.473Z,49.90
2018-10-15T12:08:42.467Z,50.29
2018-10-15T12:09:42.484Z,50.19
2018-10-15T12:10:42.504Z,49.82
2018-10-15T12:11:42.552Z,49.22
2018-10-15T12:12:42.541Z,49.34
2018-10-15T12:13:42.565Z,48.66
2018-10-15T12:14:43.846Z,48.39
2018-10-15T12:15:42.725Z,48.30
2018-10-15T12:16:42.656Z,47.91
2018-10-15T12:17:42.664Z,48.37
2018-10-15T12:18:42.648Z,49.32
2018-10-15T12:19:42.665Z,49.10
2018-10-15T12:20:42.694Z,49.44
2018-10-15T12:21:42.739Z,47.86
2018-10-15T12:22:42.789Z,47.03
2018-10-15T12:23:42.738Z,46.50
2018-10-15T12:24:42.755Z,46.60
2018-10-15T12:25:42.776Z,46.84
2018-10-15T12:26:42.815Z,45.69
2018-10-15T12:27:42.838Z,45.23
2018-10-15T12:28:42.828Z,44.86
2018-10-15T12:29:42.864Z,44.79
2018-10-15T12:30:42.861Z,43.91
2018-10-15T12:31:42.904Z,43.23
2018-10-15T12:32:42.926Z,43.96
2018-10-15T12:33:42.915Z,46.28
2018-10-15T12:34:43.082Z,47.16
2018-10-15T12:35:42.945Z,47.81
2018-10-15T12:36:42.992Z,47.55
2018-10-15T12:37:43.012Z,47.08
2018-10-15T12:38:43.002Z,46.69
2018-10-15T12:39:43.024Z,46.52
2018-10-15T12:40:43.034Z,45.67
2018-10-15T12:41:43.077Z,45.31
2018-10-15T12:42:43.094Z,45.01
2018-10-15T12:43:43.082Z,45.11
2018-10-15T12:44:43.105Z,44.99
2018-10-15T12:45:43.120Z,45.18
2018-10-15T12:46:43.172Z,45.07
2018-10-15T12:47:43.236Z,46.38
2018-10-15T12:48:43.177Z,46.60
2018-10-15T12:49:43.191Z,47.01
2018-10-15T12:50:43.208Z,45.89
2018-10-15T12:51:43.253Z,46.62
2018-10-15T12:52:43.273Z,49.95